Portada
METAR-TAF:

METAR-TAF

Aeroports :

Aeroport Internacional Houari Boumedienne

Alger, Algèria

latitud: 36-43N, longitud: 003-15E, altitud: 25 m

Observació

L'informe es va fer fa 36 minuts, a les 04:30 UTC
Vent 2 kt del Est
Temperatura 17°C
Humitat 94%
Pressió 1016 hPa
Visibilitat 10 km o més
Escasses núvols a una alçada de 1600 ft

METAR: DAAG 200430Z 10002KT 9999 FEW016 17/16 Q1016

Hora: 06:06 (05:06 UTC)

Pronòstic

L'informe es va fer fa 6 hores i 6 minuts, a les 23:00 UTC
Pronòstic vàlid del 20 a les 00 UTC al 20 a les 24 UTC
Vent 8 kt del Est/Nord-Est
Visibilitat 10 km o més
Escasses núvols a una alçada de 2000 ft
Probabilitat 30% :
Temporalment
l' 20 a les 02 UTC al 20 a les 06 UTC
Visibilitat: 5000 m
boirina
Temporalment
l' 20 a les 12 UTC al 20 a les 18 UTC
Vent 18 kt del Est/Nord-Est

TAF: DAAG 192300Z 2000/2024 06008KT 9999 FEW020 PROB30 TEMPO 2002/2006 5000 BR TEMPO 2012/2018 06018KT

Observacions i pronòstics meteorològics de més de 4000 aeroports (METAR i TAF).

Les estacions disponibles són els punts grocs i vermells al mapa.

Posi el ratolí al punt desitjat per veure el nom de l'estació.

Feu clic per veure les observacions i els pronòstics meteorològics.

Per canviar el mapa: feu clic els botons verds amb una creu de color negre per apropar; al botó verd amb un guió per allunyar la imatge; o en les fletxes verdes per a mapes adjacents.


METAR-TAF: